Upper Lake, California
Current Conditions -  °F | °C
As of 6:56 PM on Monday 20 Oct 2014 (Local Time) from KUKI Reporting Station
Broken Clouds Broken Clouds  
Wind Chill: 57°   Ceiling: 3900
Heat Index: 57°   Visibility: 10mi
Dew Point: 51°   Wind: 3mph
Humidity: 81%   Direction: 280°W
Pressure: 29.99"   Gusts: NA
Location:  39.16°N, 122.91°W
Report Text: KUKI 210156Z AUTO 28003KT 10SM BKN039 14/11 A2999 RMK AO2 SLP149 T01390106
Loading
Personal Weather Stations






























Interactive Weather Map
Tropical Storm Tracking
New forecast layout! Learn more

10-Day Weather Forecast

Advertisements
Track Severe Weather on mobile